Terminal Aerodrome Forecast
Issued by NWS

Home | Current Version | Previous Version | Text Only | Print | Product List | Glossary On
Versions: 1 2 3 4 5 6 7 8 9 10 11 12 13 14 15 16 17
186
FTUS41 KCAR 212353
TAFPQI
TAF
KPQI 212353Z 2200/2224 24005KT P6SM SKC
     FM220700 VRB03KT 2SM BR SCT250
     FM221200 VRB02KT P6SM SCT250
     FM222100 18011KT P6SM VCSH BKN050=

USA.gov is the U.S. government's official web portal to all federal, state and local government web resources and services.